Time,TemperatureF,DewpointF,PressureIn,WindDirection,WindDirectionDegrees,WindSpeedMPH,WindSpeedGustMPH,Humidity,HourlyPrecipIn,Conditions,Clouds,dailyrainin,SoftwareType,DateUTC
2013-02-23 00:01:00,5.9,1.1,29.98,SSW,203,0.0,0.7,80,0.00,,,0.00,WUHU216HW,2013-02-23 06:01:00,
2013-02-23 00:06:00,5.6,0.7,29.98,SSW,203,0.0,0.7,80,0.00,,,0.00,WUHU216HW,2013-02-23 06:06:00,
2013-02-23 00:11:00,5.4,0.5,29.98,SSW,203,0.7,0.7,80,0.00,,,0.00,WUHU216HW,2013-02-23 06:11:00,
2013-02-23 00:16:00,5.2,0.4,29.98,SSW,203,0.2,0.7,80,0.00,,,0.00,WUHU216HW,2013-02-23 06:16:00,
2013-02-23 00:21:00,5.2,0.4,29.97,SSW,203,0.0,0.7,80,0.00,,,0.00,WUHU216HW,2013-02-23 06:21:00,
2013-02-23 00:26:00,4.7,-0.2,29.97,SSW,203,0.0,0.7,80,0.00,,,0.00,WUHU216HW,2013-02-23 06:26:00,
2013-02-23 00:31:00,4.5,-0.1,29.97,South,180,0.0,0.0,81,0.00,,,0.00,WUHU216HW,2013-02-23 06:31:00,
2013-02-23 00:37:00,4.5,-0.1,29.97,South,180,0.4,0.4,81,0.00,,,0.00,WUHU216HW,2013-02-23 06:37:00,
2013-02-23 00:42:00,5.8,1.2,29.97,SSW,203,1.1,1.1,81,0.00,,,0.00,WUHU216HW,2013-02-23 06:42:00,
2013-02-23 00:47:00,6.1,1.5,29.97,SW,225,1.8,2.9,81,0.00,,,0.00,WUHU216HW,2013-02-23 06:47:00,
2013-02-23 00:52:00,5.9,1.4,29.97,SW,225,1.3,2.9,81,0.00,,,0.00,WUHU216HW,2013-02-23 06:52:00,
2013-02-23 00:57:00,5.9,1.4,29.97,SW,225,1.3,1.3,81,0.00,,,0.00,WUHU216HW,2013-02-23 06:57:00,
2013-02-23 01:02:00,5.2,0.4,29.97,SW,225,0.7,0.7,80,0.00,,,0.00,WUHU216HW,2013-02-23 07:02:00,
2013-02-23 01:07:00,5.0,0.2,29.97,SW,225,0.9,1.1,80,0.00,,,0.00,WUHU216HW,2013-02-23 07:07:00,
2013-02-23 01:12:00,5.0,0.2,29.97,SW,225,0.7,1.1,80,0.00,,,0.00,WUHU216HW,2013-02-23 07:12:00,
2013-02-23 01:17:00,4.9,0.0,29.97,SW,225,0.0,0.9,80,0.00,,,0.00,WUHU216HW,2013-02-23 07:17:00,
2013-02-23 01:22:00,4.9,0.0,29.97,SSW,203,1.6,2.0,80,0.00,,,0.00,WUHU216HW,2013-02-23 07:22:00,
2013-02-23 01:27:00,4.7,-0.2,29.97,SW,225,1.8,2.0,80,0.00,,,0.00,WUHU216HW,2013-02-23 07:27:00,
2013-02-23 01:32:00,4.9,0.0,29.97,SW,225,0.9,1.8,80,0.00,,,0.00,WUHU216HW,2013-02-23 07:32:00,
2013-02-23 01:37:00,4.9,0.0,29.97,SSW,203,0.7,1.8,80,0.00,,,0.00,WUHU216HW,2013-02-23 07:37:00,
2013-02-23 01:42:00,4.7,-0.2,29.96,SSW,203,0.9,1.1,80,0.00,,,0.00,WUHU216HW,2013-02-23 07:42:00,
2013-02-23 01:47:00,4.5,-0.4,29.96,SSW,203,0.9,1.6,80,0.00,,,0.00,WUHU216HW,2013-02-23 07:47:00,
2013-02-23 01:52:00,4.3,-0.5,29.96,SSW,203,1.1,1.6,80,0.00,,,0.00,WUHU216HW,2013-02-23 07:52:00,
2013-02-23 01:57:00,4.1,-0.7,29.96,SSW,203,1.8,2.5,80,0.00,,,0.00,WUHU216HW,2013-02-23 07:57:00,
2013-02-23 02:02:00,4.0,-0.9,29.96,SSW,203,1.1,2.5,80,0.00,,,0.00,WUHU216HW,2013-02-23 08:02:00,
2013-02-23 02:07:00,4.0,-0.9,29.96,South,180,1.1,1.6,80,0.00,,,0.00,WUHU216HW,2013-02-23 08:07:00,
2013-02-23 02:12:00,3.8,-1.1,29.96,SSW,203,1.8,1.8,80,0.00,,,0.00,WUHU216HW,2013-02-23 08:12:00,
2013-02-23 02:17:00,4.0,-0.9,29.96,SSW,203,1.1,1.8,80,0.00,,,0.00,WUHU216HW,2013-02-23 08:17:00,
2013-02-23 02:22:00,4.0,-0.9,29.95,SSW,203,1.1,1.8,80,0.00,,,0.00,WUHU216HW,2013-02-23 08:22:00,
2013-02-23 02:27:00,4.0,-0.9,29.95,SSW,203,1.3,1.3,80,0.00,,,0.00,WUHU216HW,2013-02-23 08:27:00,
2013-02-23 02:32:00,4.0,-0.9,29.95,South,180,0.9,1.8,80,0.00,,,0.00,WUHU216HW,2013-02-23 08:32:00,
2013-02-23 02:37:00,3.6,-1.3,29.95,South,180,0.7,1.8,80,0.00,,,0.00,WUHU216HW,2013-02-23 08:37:00,
2013-02-23 02:42:00,3.4,-1.4,29.95,South,180,0.9,1.1,80,0.00,,,0.00,WUHU216HW,2013-02-23 08:42:00,
2013-02-23 02:47:00,3.2,-1.6,29.95,South,180,1.1,1.1,80,0.00,,,0.00,WUHU216HW,2013-02-23 08:47:00,
2013-02-23 02:52:00,3.2,-1.6,29.94,South,180,0.9,1.1,80,0.00,,,0.00,WUHU216HW,2013-02-23 08:52:00,
2013-02-23 02:57:00,3.1,-1.8,29.94,South,180,1.8,1.8,80,0.00,,,0.00,WUHU216HW,2013-02-23 08:57:00,
2013-02-23 03:02:00,2.9,-1.7,29.94,SSW,203,1.1,1.8,81,0.00,,,0.00,WUHU216HW,2013-02-23 09:02:00,
2013-02-23 03:07:00,2.9,-1.7,29.93,SSW,203,0.7,1.3,81,0.00,,,0.00,WUHU216HW,2013-02-23 09:07:00,
2013-02-23 03:12:00,2.9,-1.7,29.93,SSW,203,1.1,1.1,81,0.00,,,0.00,WUHU216HW,2013-02-23 09:12:00,
2013-02-23 03:17:00,2.7,-1.9,29.93,SSW,203,1.1,1.1,81,0.00,,,0.00,WUHU216HW,2013-02-23 09:17:00,
2013-02-23 03:22:00,2.5,-2.1,29.93,SSW,203,0.9,1.1,81,0.00,,,0.00,WUHU216HW,2013-02-23 09:22:00,
2013-02-23 03:27:00,2.5,-2.1,29.93,SSW,203,0.9,1.1,81,0.00,,,0.00,WUHU216HW,2013-02-23 09:27:00,
2013-02-23 03:32:00,2.3,-2.2,29.94,SSW,203,0.4,0.9,81,0.00,,,0.00,WUHU216HW,2013-02-23 09:32:00,
2013-02-23 03:37:00,2.2,-2.4,29.93,SSW,203,0.4,0.9,81,0.00,,,0.00,WUHU216HW,2013-02-23 09:37:00,
2013-02-23 03:42:00,2.2,-2.4,29.93,SSW,203,0.4,0.9,81,0.00,,,0.00,WUHU216HW,2013-02-23 09:42:00,
2013-02-23 03:47:00,2.2,-2.4,29.93,South,180,2.2,2.2,81,0.00,,,0.00,WUHU216HW,2013-02-23 09:47:00,
2013-02-23 03:52:00,2.2,-2.4,29.93,South,180,1.8,2.2,81,0.00,,,0.00,WUHU216HW,2013-02-23 09:52:00,
2013-02-23 03:57:00,2.7,-1.9,29.93,South,180,2.0,2.0,81,0.00,,,0.00,WUHU216HW,2013-02-23 09:57:00,
2013-02-23 04:02:00,2.9,-2.0,29.92,South,180,2.2,2.2,80,0.00,,,0.00,WUHU216HW,2013-02-23 10:02:00,
2013-02-23 04:07:00,3.2,-1.3,29.92,SSW,203,1.1,2.5,81,0.00,,,0.00,WUHU216HW,2013-02-23 10:07:00,
2013-02-23 04:12:00,3.1,-1.5,29.92,South,180,1.3,2.2,81,0.00,,,0.00,WUHU216HW,2013-02-23 10:12:00,
2013-02-23 04:18:00,3.1,-1.5,29.91,South,180,2.0,2.0,81,0.00,,,0.00,WUHU216HW,2013-02-23 10:18:00,
2013-02-23 04:23:00,3.1,-1.5,29.91,South,180,2.0,2.0,81,0.00,,,0.00,WUHU216HW,2013-02-23 10:23:00,
2013-02-23 04:46:00,3.2,-1.3,29.91,South,180,1.6,1.6,81,0.00,,,0.00,WUHU216HW,2013-02-23 10:46:00,
2013-02-23 04:51:00,3.2,-1.3,29.91,South,180,0.0,1.6,81,0.00,,,0.00,WUHU216HW,2013-02-23 10:51:00,
2013-02-23 04:56:00,3.1,-1.5,29.91,South,180,0.0,1.6,81,0.00,,,0.00,WUHU216HW,2013-02-23 10:56:00,
2013-02-23 05:01:00,2.7,-1.9,29.91,South,180,0.0,1.1,81,0.00,,,0.00,WUHU216HW,2013-02-23 11:01:00,
2013-02-23 05:06:00,2.5,-2.1,29.92,South,180,0.2,1.1,81,0.00,,,0.00,WUHU216HW,2013-02-23 11:06:00,
2013-02-23 05:11:00,2.5,-2.1,29.91,SSE,158,1.1,1.1,81,0.00,,,0.00,WUHU216HW,2013-02-23 11:11:00,
2013-02-23 05:16:00,2.2,-2.4,29.91,South,180,1.8,1.8,81,0.00,,,0.00,WUHU216HW,2013-02-23 11:16:00,
2013-02-23 05:21:00,2.2,-2.4,29.91,South,180,1.1,1.8,81,0.00,,,0.00,WUHU216HW,2013-02-23 11:21:00,
2013-02-23 05:26:00,2.0,-2.6,29.91,South,180,1.3,2.0,81,0.00,,,0.00,WUHU216HW,2013-02-23 11:26:00,
2013-02-23 05:31:00,2.0,-2.6,29.90,South,180,1.6,2.0,81,0.00,,,0.00,WUHU216HW,2013-02-23 11:31:00,
2013-02-23 05:36:00,2.0,-2.6,29.90,South,180,1.8,2.2,81,0.00,,,0.00,WUHU216HW,2013-02-23 11:36:00,
2013-02-23 05:41:00,2.2,-2.4,29.91,South,180,1.8,2.2,81,0.00,,,0.00,WUHU216HW,2013-02-23 11:41:00,
2013-02-23 05:46:00,2.5,-2.1,29.91,South,180,1.1,1.8,81,0.00,,,0.00,WUHU216HW,2013-02-23 11:46:00,
2013-02-23 05:51:00,2.5,-2.1,29.91,South,180,0.7,1.8,81,0.00,,,0.00,WUHU216HW,2013-02-23 11:51:00,
2013-02-23 05:56:00,2.5,-2.1,29.91,South,180,1.1,1.6,81,0.00,,,0.00,WUHU216HW,2013-02-23 11:56:00,
2013-02-23 06:01:00,2.5,-2.1,29.91,SSW,203,0.7,1.3,81,0.00,,,0.00,WUHU216HW,2013-02-23 12:01:00,
2013-02-23 06:06:00,2.5,-2.1,29.91,SSW,203,0.7,0.9,81,0.00,,,0.00,WUHU216HW,2013-02-23 12:06:00,
2013-02-23 06:11:00,2.7,-1.9,29.91,SSW,203,1.1,1.1,81,0.00,,,0.00,WUHU216HW,2013-02-23 12:11:00,
2013-02-23 06:16:00,2.9,-1.7,29.90,SSW,203,0.0,1.1,81,0.00,,,0.00,WUHU216HW,2013-02-23 12:16:00,
2013-02-23 06:21:00,3.1,-1.5,29.90,SSW,203,0.7,1.1,81,0.00,,,0.00,WUHU216HW,2013-02-23 12:21:00,
2013-02-23 06:26:00,3.1,-1.5,29.90,SSW,203,0.7,0.7,81,0.00,,,0.00,WUHU216HW,2013-02-23 12:26:00,
2013-02-23 06:48:00,3.4,-1.2,29.90,SSW,203,0.7,0.7,81,0.00,,,0.00,WUHU216HW,2013-02-23 12:48:00,
2013-02-23 06:53:00,3.4,-1.2,29.90,SW,225,0.4,0.7,81,0.00,,,0.00,WUHU216HW,2013-02-23 12:53:00,
2013-02-23 06:58:00,3.4,-1.2,29.90,SW,225,0.4,0.7,81,0.00,,,0.00,WUHU216HW,2013-02-23 12:58:00,
2013-02-23 07:03:00,3.4,-1.2,29.90,SW,225,0.9,0.9,81,0.00,,,0.00,WUHU216HW,2013-02-23 13:03:00,
2013-02-23 07:08:00,3.6,-1.0,29.89,SW,225,0.7,1.1,81,0.00,,,0.00,WUHU216HW,2013-02-23 13:08:00,
2013-02-23 07:13:00,3.6,-1.0,29.89,SW,225,0.7,1.1,81,0.00,,,0.00,WUHU216HW,2013-02-23 13:13:00,
2013-02-23 07:18:00,3.4,-1.2,29.89,SW,225,0.7,0.9,81,0.00,,,0.00,WUHU216HW,2013-02-23 13:18:00,
2013-02-23 07:23:00,3.6,-1.0,29.89,SSW,203,1.3,1.3,81,0.00,,,0.00,WUHU216HW,2013-02-23 13:23:00,
2013-02-23 07:28:00,3.8,-0.8,29.88,SSW,203,1.8,1.8,81,0.00,,,0.00,WUHU216HW,2013-02-23 13:28:00,
2013-02-23 07:33:00,4.1,-0.7,29.88,SSW,203,1.1,1.8,80,0.00,,,0.00,WUHU216HW,2013-02-23 13:33:00,
2013-02-23 07:38:00,4.7,-0.2,29.88,SSW,203,1.1,1.6,80,0.00,,,0.00,WUHU216HW,2013-02-23 13:38:00,
2013-02-23 07:43:00,5.0,0.2,29.88,SSW,203,1.1,1.3,80,0.00,,,0.00,WUHU216HW,2013-02-23 13:43:00,
2013-02-23 07:49:00,5.4,0.5,29.88,WSW,248,1.1,1.1,80,0.00,,,0.00,WUHU216HW,2013-02-23 13:49:00,
2013-02-23 07:54:00,5.9,1.4,29.88,SW,225,1.1,1.3,81,0.00,,,0.00,WUHU216HW,2013-02-23 13:54:00,
2013-02-23 07:59:00,6.7,2.1,29.88,SW,225,1.6,1.6,81,0.00,,,0.00,WUHU216HW,2013-02-23 13:59:00,
2013-02-23 08:04:00,7.2,2.6,29.88,SSW,203,1.1,1.6,81,0.00,,,0.00,WUHU216HW,2013-02-23 14:04:00,
2013-02-23 08:09:00,7.7,2.9,29.88,SSW,203,1.3,1.3,80,0.00,,,0.00,WUHU216HW,2013-02-23 14:09:00,
2013-02-23 08:14:00,8.6,3.8,29.88,SSW,203,1.1,1.3,80,0.00,,,0.00,WUHU216HW,2013-02-23 14:14:00,
2013-02-23 08:19:00,10.3,5.2,29.88,SSW,203,1.1,1.3,80,0.00,,,0.00,WUHU216HW,2013-02-23 14:19:00,
2013-02-23 08:24:00,10.8,5.8,29.88,SSW,203,1.3,1.3,80,0.00,,,0.00,WUHU216HW,2013-02-23 14:24:00,
2013-02-23 08:29:00,10.8,5.8,29.88,SSW,203,1.3,1.3,80,0.00,,,0.00,WUHU216HW,2013-02-23 14:29:00,
2013-02-23 08:50:00,23.2,17.1,29.88,SW,225,1.1,1.1,77,0.00,,,0.00,WUHU216HW,2013-02-23 14:50:00,
2013-02-23 08:55:00,24.3,18.1,29.88,SW,225,1.1,1.8,77,0.00,,,0.00,WUHU216HW,2013-02-23 14:55:00,
2013-02-23 09:00:00,24.8,18.4,29.88,SSW,203,1.6,1.8,76,0.00,,,0.00,WUHU216HW,2013-02-23 15:00:00,
2013-02-23 09:05:00,26.3,19.7,29.88,SSW,203,0.4,1.6,76,0.00,,,0.00,WUHU216HW,2013-02-23 15:05:00,
2013-02-23 09:10:00,29.7,22.7,29.88,SSW,203,0.9,1.6,75,0.00,,,0.00,WUHU216HW,2013-02-23 15:10:00,
2013-02-23 09:15:00,31.0,23.6,29.88,SSW,203,1.1,1.1,74,0.00,,,0.00,WUHU216HW,2013-02-23 15:15:00,
2013-02-23 09:20:00,31.3,23.3,29.88,South,180,2.5,2.5,72,0.00,,,0.00,WUHU216HW,2013-02-23 15:20:00,
2013-02-23 09:25:00,29.9,21.2,29.88,South,180,2.0,2.5,70,0.00,,,0.00,WUHU216HW,2013-02-23 15:25:00,
2013-02-23 09:30:00,28.8,20.4,29.88,South,180,3.4,3.6,70,0.00,,,0.00,WUHU216HW,2013-02-23 15:30:00,
2013-02-23 09:35:00,29.0,20.4,29.88,SSW,203,2.0,3.6,70,0.00,,,0.00,WUHU216HW,2013-02-23 15:35:00,
2013-02-23 09:40:00,31.0,22.7,29.88,SSW,203,2.5,3.4,71,0.00,,,0.00,WUHU216HW,2013-02-23 15:40:00,
2013-02-23 09:45:00,33.1,24.4,29.88,SSW,203,4.0,4.0,70,0.00,,,0.00,WUHU216HW,2013-02-23 15:45:00,
2013-02-23 09:50:00,34.7,25.2,29.88,SSW,203,3.1,4.0,68,0.00,,,0.00,WUHU216HW,2013-02-23 15:50:00,
2013-02-23 09:55:00,36.4,26.1,29.88,SSW,203,3.6,4.0,66,0.00,,,0.00,WUHU216HW,2013-02-23 15:55:00,
2013-02-23 10:00:00,37.6,26.1,29.88,South,180,4.7,4.7,63,0.00,,,0.00,WUHU216HW,2013-02-23 16:00:00,
2013-02-23 10:05:00,38.0,26.1,29.88,SSW,203,3.6,4.7,62,0.00,,,0.00,WUHU216HW,2013-02-23 16:05:00,
2013-02-23 10:10:00,38.0,25.3,29.87,SSW,203,4.0,4.7,60,0.00,,,0.00,WUHU216HW,2013-02-23 16:10:00,
2013-02-23 10:15:00,38.5,25.8,29.87,South,180,3.4,4.0,60,0.00,,,0.00,WUHU216HW,2013-02-23 16:15:00,
2013-02-23 10:20:00,38.9,24.8,29.87,SSW,203,4.5,4.5,57,0.00,,,0.00,WUHU216HW,2013-02-23 16:20:00,
2013-02-23 10:25:00,36.4,21.2,29.87,SSW,203,3.8,5.1,54,0.00,,,0.00,WUHU216HW,2013-02-23 16:25:00,
2013-02-23 10:30:00,36.2,21.5,29.87,SSW,203,4.5,5.1,55,0.00,,,0.00,WUHU216HW,2013-02-23 16:30:00,
2013-02-23 10:35:00,35.6,21.1,29.87,SSW,203,4.0,4.5,55,0.00,,,0.00,WUHU216HW,2013-02-23 16:35:00,
2013-02-23 10:40:00,37.1,22.8,29.87,South,180,4.7,4.7,56,0.00,,,0.00,WUHU216HW,2013-02-23 16:40:00,
2013-02-23 10:45:00,37.3,22.5,29.87,SSW,203,3.4,4.7,55,0.00,,,0.00,WUHU216HW,2013-02-23 16:45:00,
2013-02-23 10:50:00,40.1,25.6,29.87,SSW,203,3.8,4.7,56,0.00,,,0.00,WUHU216HW,2013-02-23 16:50:00,
2013-02-23 10:55:00,42.3,27.2,29.87,SSW,203,3.8,4.0,55,0.00,,,0.00,WUHU216HW,2013-02-23 16:55:00,
2013-02-23 11:00:00,42.8,27.3,29.87,SSW,203,3.6,4.3,54,0.00,,,0.00,WUHU216HW,2013-02-23 17:00:00,
2013-02-23 11:05:00,42.3,25.0,29.87,South,180,5.6,5.6,50,0.00,,,0.00,WUHU216HW,2013-02-23 17:05:00,
2013-02-23 11:10:00,39.8,22.2,29.87,SSW,203,3.4,7.4,49,0.00,,,0.00,WUHU216HW,2013-02-23 17:10:00,
2013-02-23 11:15:00,39.4,23.1,29.87,SSW,203,4.7,7.4,52,0.00,,,0.00,WUHU216HW,2013-02-23 17:15:00,
2013-02-23 11:20:00,39.8,23.0,29.87,South,180,4.7,7.2,51,0.00,,,0.00,WUHU216HW,2013-02-23 17:20:00,
2013-02-23 11:25:00,39.2,23.1,29.87,South,180,4.0,7.2,52,0.00,,,0.00,WUHU216HW,2013-02-23 17:25:00,
2013-02-23 11:30:00,38.5,22.3,29.87,SSW,203,4.0,5.4,52,0.00,,,0.00,WUHU216HW,2013-02-23 17:30:00,
2013-02-23 11:35:00,37.3,22.1,29.87,SSW,203,4.5,4.7,54,0.00,,,0.00,WUHU216HW,2013-02-23 17:35:00,
2013-02-23 11:40:00,37.3,22.5,29.87,SSW,203,5.1,5.1,55,0.00,,,0.00,WUHU216HW,2013-02-23 17:40:00,
2013-02-23 11:45:00,38.5,24.1,29.87,SSW,203,4.7,5.4,56,0.00,,,0.00,WUHU216HW,2013-02-23 17:45:00,
2013-02-23 11:50:00,39.1,24.1,29.87,SSW,203,3.8,5.4,55,0.00,,,0.00,WUHU216HW,2013-02-23 17:50:00,
2013-02-23 11:55:00,39.2,23.9,29.87,SSW,203,6.3,6.3,54,0.00,,,0.00,WUHU216HW,2013-02-23 17:55:00,
2013-02-23 12:00:00,39.1,24.1,29.87,SW,225,5.1,6.3,55,0.00,,,0.00,WUHU216HW,2013-02-23 18:00:00,
2013-02-23 12:05:00,39.1,23.7,29.87,SSW,203,4.7,5.8,54,0.00,,,0.00,WUHU216HW,2013-02-23 18:05:00,
2013-02-23 12:10:00,39.1,24.1,29.87,SSW,203,4.0,5.6,55,0.00,,,0.00,WUHU216HW,2013-02-23 18:10:00,
2013-02-23 12:15:00,39.1,23.7,29.86,SSW,203,4.3,5.1,54,0.00,,,0.00,WUHU216HW,2013-02-23 18:15:00,
2013-02-23 12:20:00,38.7,23.9,29.86,SSW,203,4.7,5.1,55,0.00,,,0.00,WUHU216HW,2013-02-23 18:20:00,
2013-02-23 12:25:00,38.2,23.8,29.86,SSW,203,6.0,6.0,56,0.00,,,0.00,WUHU216HW,2013-02-23 18:25:00,
2013-02-23 12:30:00,38.2,23.8,29.86,SSW,203,4.5,6.0,56,0.00,,,0.00,WUHU216HW,2013-02-23 18:30:00,
2013-02-23 12:35:00,38.5,24.5,29.85,SSW,203,4.3,5.1,57,0.00,,,0.00,WUHU216HW,2013-02-23 18:35:00,
2013-02-23 12:40:00,39.2,24.8,29.85,SSW,203,5.6,6.9,56,0.00,,,0.00,WUHU216HW,2013-02-23 18:40:00,
2013-02-23 12:45:00,38.9,23.9,29.85,SSW,203,5.8,6.9,55,0.00,,,0.00,WUHU216HW,2013-02-23 18:45:00,
2013-02-23 12:50:00,38.3,23.5,29.85,SW,225,6.0,6.3,55,0.00,,,0.00,WUHU216HW,2013-02-23 18:50:00,
2013-02-23 12:55:00,38.3,24.0,29.85,SSW,203,5.4,6.7,56,0.00,,,0.00,WUHU216HW,2013-02-23 18:55:00,
2013-02-23 13:00:00,38.5,24.5,29.85,SSW,203,4.0,6.7,57,0.00,,,0.00,WUHU216HW,2013-02-23 19:00:00,
2013-02-23 13:05:00,38.5,24.5,29.85,SSW,203,3.8,6.5,57,0.00,,,0.00,WUHU216HW,2013-02-23 19:05:00,
2013-02-23 13:10:00,38.7,25.1,29.85,SSW,203,4.3,6.5,58,0.00,,,0.00,WUHU216HW,2013-02-23 19:10:00,
2013-02-23 13:15:00,39.2,25.6,29.85,SSW,203,3.4,5.4,58,0.00,,,0.00,WUHU216HW,2013-02-23 19:15:00,
2013-02-23 13:20:00,40.0,26.3,29.85,SSW,203,3.4,5.1,58,0.00,,,0.00,WUHU216HW,2013-02-23 19:20:00,
2013-02-23 13:25:00,40.5,26.4,29.84,SSW,203,3.8,5.1,57,0.00,,,0.00,WUHU216HW,2013-02-23 19:25:00,
2013-02-23 13:30:00,40.7,26.6,29.84,SSW,203,3.8,5.8,57,0.00,,,0.00,WUHU216HW,2013-02-23 19:30:00,
2013-02-23 13:35:00,40.7,26.1,29.84,SSW,203,3.4,5.8,56,0.00,,,0.00,WUHU216HW,2013-02-23 19:35:00,
2013-02-23 13:40:00,40.7,26.6,29.84,SSW,203,4.7,4.7,57,0.00,,,0.00,WUHU216HW,2013-02-23 19:40:00,
2013-02-23 13:45:00,40.7,26.1,29.84,SSW,203,4.9,5.4,56,0.00,,,0.00,WUHU216HW,2013-02-23 19:45:00,
2013-02-23 13:50:00,40.5,26.4,29.84,SSW,203,5.1,5.4,57,0.00,,,0.00,WUHU216HW,2013-02-23 19:50:00,
2013-02-23 13:55:00,40.3,26.2,29.84,SSW,203,4.3,5.6,57,0.00,,,0.00,WUHU216HW,2013-02-23 19:55:00,
2013-02-23 14:00:00,40.3,26.2,29.83,SSW,203,2.7,5.6,57,0.00,,,0.00,WUHU216HW,2013-02-23 20:00:00,
2013-02-23 14:05:00,40.7,26.6,29.83,SW,225,4.7,5.4,57,0.00,,,0.00,WUHU216HW,2013-02-23 20:05:00,
2013-02-23 14:10:00,40.7,26.6,29.83,SSW,203,3.4,5.6,57,0.00,,,0.00,WUHU216HW,2013-02-23 20:10:00,
2013-02-23 14:15:00,41.2,27.6,29.83,SSW,203,4.7,5.6,58,0.00,,,0.00,WUHU216HW,2013-02-23 20:15:00,
2013-02-23 14:20:00,41.2,27.1,29.83,SW,225,4.7,4.7,57,0.00,,,0.00,WUHU216HW,2013-02-23 20:20:00,
2013-02-23 14:25:00,40.9,26.7,29.83,SW,225,5.4,6.3,57,0.00,,,0.00,WUHU216HW,2013-02-23 20:25:00,
2013-02-23 14:30:00,40.7,26.6,29.83,SSW,203,6.7,6.7,57,0.00,,,0.00,WUHU216HW,2013-02-23 20:30:00,
2013-02-23 14:35:00,40.0,25.8,29.83,SSW,203,6.7,6.9,57,0.00,,,0.00,WUHU216HW,2013-02-23 20:35:00,
2013-02-23 14:40:00,39.8,25.7,29.83,SW,225,5.6,8.3,57,0.00,,,0.00,WUHU216HW,2013-02-23 20:40:00,
2013-02-23 14:45:00,39.2,25.6,29.83,SSW,203,6.5,8.3,58,0.00,,,0.00,WUHU216HW,2013-02-23 20:45:00,
2013-02-23 14:51:00,39.2,26.0,29.82,SW,225,5.4,6.9,59,0.00,,,0.00,WUHU216HW,2013-02-23 20:51:00,
2013-02-23 14:56:00,39.2,26.0,29.82,SSW,203,6.3,6.9,59,0.00,,,0.00,WUHU216HW,2013-02-23 20:56:00,
2013-02-23 15:01:00,38.9,26.1,29.82,SW,225,6.9,6.9,60,0.00,,,0.00,WUHU216HW,2013-02-23 21:01:00,
2013-02-23 15:06:00,38.9,26.6,29.82,SSW,203,5.6,6.9,61,0.00,,,0.00,WUHU216HW,2013-02-23 21:06:00,
2013-02-23 15:11:00,39.2,26.8,29.82,SSW,203,4.0,5.6,61,0.00,,,0.00,WUHU216HW,2013-02-23 21:11:00,
2013-02-23 15:16:00,39.2,26.8,29.82,SSW,203,4.5,6.0,61,0.00,,,0.00,WUHU216HW,2013-02-23 21:16:00,
2013-02-23 15:21:00,39.1,26.6,29.81,SSW,203,4.5,6.0,61,0.00,,,0.00,WUHU216HW,2013-02-23 21:21:00,
2013-02-23 15:26:00,39.2,27.2,29.81,SSW,203,3.6,4.9,62,0.00,,,0.00,WUHU216HW,2013-02-23 21:26:00,
2013-02-23 15:31:00,39.6,27.5,29.82,SSW,203,4.3,4.3,62,0.00,,,0.00,WUHU216HW,2013-02-23 21:31:00,
2013-02-23 15:36:00,39.6,27.5,29.81,SSW,203,4.0,5.1,62,0.00,,,0.00,WUHU216HW,2013-02-23 21:36:00,
2013-02-23 15:41:00,39.6,27.5,29.81,SSW,203,3.8,5.1,62,0.00,,,0.00,WUHU216HW,2013-02-23 21:41:00,
2013-02-23 15:46:00,39.1,27.5,29.81,SSW,203,4.0,6.9,63,0.00,,,0.00,WUHU216HW,2013-02-23 21:46:00,
2013-02-23 15:51:00,38.7,27.1,29.81,South,180,6.0,6.9,63,0.00,,,0.00,WUHU216HW,2013-02-23 21:51:00,
2013-02-23 15:56:00,38.3,26.8,29.81,SSW,203,5.4,6.3,63,0.00,,,0.00,WUHU216HW,2013-02-23 21:56:00,
2013-02-23 16:01:00,38.0,26.8,29.81,SSW,203,5.8,6.5,64,0.00,,,0.00,WUHU216HW,2013-02-23 22:01:00,
2013-02-23 16:06:00,37.6,26.9,29.81,SSW,203,5.8,6.5,65,0.00,,,0.00,WUHU216HW,2013-02-23 22:06:00,
2013-02-23 16:11:00,37.4,26.7,29.81,SSW,203,5.1,6.0,65,0.00,,,0.00,WUHU216HW,2013-02-23 22:11:00,
2013-02-23 16:16:00,37.4,27.1,29.81,SSW,203,4.9,6.0,66,0.00,,,0.00,WUHU216HW,2013-02-23 22:16:00,
2013-02-23 16:22:00,37.3,26.9,29.81,SSW,203,5.1,5.4,66,0.00,,,0.00,WUHU216HW,2013-02-23 22:22:00,
2013-02-23 16:27:00,37.1,27.2,29.81,South,180,4.3,5.4,67,0.00,,,0.00,WUHU216HW,2013-02-23 22:27:00,
2013-02-23 16:32:00,36.9,27.0,29.80,SSW,203,7.4,7.4,67,0.00,,,0.00,WUHU216HW,2013-02-23 22:32:00,
2013-02-23 16:37:00,36.7,26.8,29.80,SSW,203,4.7,7.4,67,0.00,,,0.00,WUHU216HW,2013-02-23 22:37:00,
2013-02-23 16:42:00,36.5,26.7,29.80,SSW,203,4.0,7.2,67,0.00,,,0.00,WUHU216HW,2013-02-23 22:42:00,
2013-02-23 16:47:00,36.4,26.8,29.80,SSW,203,4.5,5.4,68,0.00,,,0.00,WUHU216HW,2013-02-23 22:47:00,
2013-02-23 16:52:00,36.2,26.7,29.80,SSW,203,4.3,5.4,68,0.00,,,0.00,WUHU216HW,2013-02-23 22:52:00,
2013-02-23 16:57:00,36.0,26.5,29.80,SSW,203,4.7,5.1,68,0.00,,,0.00,WUHU216HW,2013-02-23 22:57:00,
2013-02-23 17:02:00,35.6,26.1,29.80,SSW,203,4.7,5.4,68,0.00,,,0.00,WUHU216HW,2013-02-23 23:02:00,
2013-02-23 17:07:00,35.6,26.5,29.80,SSW,203,4.3,5.4,69,0.00,,,0.00,WUHU216HW,2013-02-23 23:07:00,
2013-02-23 17:12:00,35.6,26.5,29.80,SSW,203,4.3,4.7,69,0.00,,,0.00,WUHU216HW,2013-02-23 23:12:00,
2013-02-23 17:17:00,35.5,26.3,29.80,SSW,203,4.3,4.7,69,0.00,,,0.00,WUHU216HW,2013-02-23 23:17:00,
2013-02-23 17:22:00,35.3,26.1,29.80,SSW,203,4.7,4.7,69,0.00,,,0.00,WUHU216HW,2013-02-23 23:22:00,
2013-02-23 17:27:00,35.1,25.9,29.80,SSW,203,3.6,4.7,69,0.00,,,0.00,WUHU216HW,2013-02-23 23:27:00,
2013-02-23 17:32:00,35.1,25.9,29.80,SSW,203,3.6,4.0,69,0.00,,,0.00,WUHU216HW,2013-02-23 23:32:00,
2013-02-23 17:37:00,34.7,25.9,29.79,SSW,203,3.4,4.0,70,0.00,,,0.00,WUHU216HW,2013-02-23 23:37:00,
2013-02-23 17:42:00,34.2,25.4,29.79,SSE,158,3.8,4.5,70,0.00,,,0.00,WUHU216HW,2013-02-23 23:42:00,
2013-02-23 17:47:00,33.8,25.0,29.80,SSW,203,3.1,5.8,70,0.00,,,0.00,WUHU216HW,2013-02-23 23:47:00,
2013-02-23 17:52:00,33.5,24.7,29.80,South,180,5.4,5.8,70,0.00,,,0.00,WUHU216HW,2013-02-23 23:52:00,
2013-02-23 17:57:00,32.9,24.2,29.80,SSW,203,4.7,5.4,70,0.00,,,0.00,WUHU216HW,2013-02-23 23:57:00,
2013-02-23 18:02:00,32.6,24.2,29.80,SSW,203,3.4,4.7,71,0.00,,,0.00,WUHU216HW,2013-02-24 00:02:00,
2013-02-23 18:07:00,32.0,23.8,29.80,SSW,203,3.4,4.7,71,0.00,,,0.00,WUHU216HW,2013-02-24 00:07:00,
2013-02-23 18:12:00,31.7,23.7,29.80,SSE,158,4.0,5.1,72,0.00,,,0.00,WUHU216HW,2013-02-24 00:12:00,
2013-02-23 18:17:00,31.3,23.3,29.80,SSW,203,5.1,6.5,72,0.00,,,0.00,WUHU216HW,2013-02-24 00:17:00,
2013-02-23 18:22:00,31.3,23.7,29.80,South,180,3.4,6.5,73,0.00,,,0.00,WUHU216HW,2013-02-24 00:22:00,
2013-02-23 18:28:00,30.8,23.1,29.80,South,180,3.8,5.8,73,0.00,,,0.00,WUHU216HW,2013-02-24 00:28:00,
2013-02-23 18:33:00,30.6,23.0,29.80,SSW,203,3.8,4.9,73,0.00,,,0.00,WUHU216HW,2013-02-24 00:33:00,
2013-02-23 18:38:00,30.4,22.8,29.81,SSW,203,5.6,5.6,73,0.00,,,0.00,WUHU216HW,2013-02-24 00:38:00,
2013-02-23 18:43:00,29.9,22.6,29.81,SSW,203,3.6,5.6,74,0.00,,,0.00,WUHU216HW,2013-02-24 00:43:00,
2013-02-23 18:48:00,29.7,22.4,29.81,SSW,203,3.6,4.9,74,0.00,,,0.00,WUHU216HW,2013-02-24 00:48:00,
2013-02-23 18:53:00,29.5,22.2,29.81,SSW,203,3.4,4.0,74,0.00,,,0.00,WUHU216HW,2013-02-24 00:53:00,
2013-02-23 18:58:00,29.3,22.1,29.81,South,180,3.1,4.0,74,0.00,,,0.00,WUHU216HW,2013-02-24 00:58:00,
2013-02-23 19:03:00,29.2,21.9,29.81,SSW,203,2.9,4.5,74,0.00,,,0.00,WUHU216HW,2013-02-24 01:03:00,
2013-02-23 19:08:00,29.0,22.1,29.81,SSW,203,4.0,4.5,75,0.00,,,0.00,WUHU216HW,2013-02-24 01:08:00,
2013-02-23 19:13:00,28.8,21.9,29.82,SSW,203,3.8,4.3,75,0.00,,,0.00,WUHU216HW,2013-02-24 01:13:00,
2013-02-23 19:18:00,28.6,21.7,29.82,SSW,203,4.7,4.7,75,0.00,,,0.00,WUHU216HW,2013-02-24 01:18:00,
2013-02-23 19:23:00,28.4,21.5,29.82,SW,225,4.3,4.7,75,0.00,,,0.00,WUHU216HW,2013-02-24 01:23:00,
2013-02-23 19:28:00,28.4,21.5,29.82,SSW,203,4.7,4.7,75,0.00,,,0.00,WUHU216HW,2013-02-24 01:28:00,
2013-02-23 19:33:00,28.4,21.8,29.82,SSW,203,3.6,5.8,76,0.00,,,0.00,WUHU216HW,2013-02-24 01:33:00,
2013-02-23 19:38:00,28.4,21.8,29.82,SSW,203,3.6,5.8,76,0.00,,,0.00,WUHU216HW,2013-02-24 01:38:00,
2013-02-23 19:43:00,28.3,21.6,29.82,SSW,203,6.3,6.3,76,0.00,,,0.00,WUHU216HW,2013-02-24 01:43:00,
2013-02-23 19:48:00,28.1,21.4,29.81,SSE,158,6.3,6.9,76,0.00,,,0.00,WUHU216HW,2013-02-24 01:48:00,
2013-02-23 19:53:00,28.4,21.8,29.81,SSW,203,4.0,6.9,76,0.00,,,0.00,WUHU216HW,2013-02-24 01:53:00,
2013-02-23 19:58:00,28.3,21.6,29.82,SSW,203,4.7,6.3,76,0.00,,,0.00,WUHU216HW,2013-02-24 01:58:00,
2013-02-23 20:04:00,27.9,21.2,29.82,South,180,6.0,6.3,76,0.00,,,0.00,WUHU216HW,2013-02-24 02:04:00,
2013-02-23 20:09:00,27.7,21.1,29.82,SSW,203,4.3,6.5,76,0.00,,,0.00,WUHU216HW,2013-02-24 02:09:00,
2013-02-23 20:14:00,27.7,20.8,29.82,South,180,5.8,6.5,75,0.00,,,0.00,WUHU216HW,2013-02-24 02:14:00,
2013-02-23 20:19:00,27.7,20.8,29.82,South,180,4.7,6.3,75,0.00,,,0.00,WUHU216HW,2013-02-24 02:19:00,
2013-02-23 20:24:00,27.7,20.8,29.82,SSW,203,3.4,6.3,75,0.00,,,0.00,WUHU216HW,2013-02-24 02:24:00,
2013-02-23 20:29:00,27.7,20.8,29.82,SSW,203,4.3,5.8,75,0.00,,,0.00,WUHU216HW,2013-02-24 02:29:00,
2013-02-23 20:34:00,27.4,20.4,29.82,SSW,203,4.0,5.8,75,0.00,,,0.00,WUHU216HW,2013-02-24 02:34:00,
2013-02-23 20:39:00,27.2,20.3,29.83,SSW,203,4.0,4.9,75,0.00,,,0.00,WUHU216HW,2013-02-24 02:39:00,
2013-02-23 20:44:00,27.2,20.3,29.83,SSW,203,4.0,4.9,75,0.00,,,0.00,WUHU216HW,2013-02-24 02:44:00,
2013-02-23 20:49:00,27.2,20.3,29.83,SSW,203,4.7,6.9,75,0.00,,,0.00,WUHU216HW,2013-02-24 02:49:00,
2013-02-23 20:54:00,27.0,20.1,29.83,SSW,203,3.4,6.9,75,0.00,,,0.00,WUHU216HW,2013-02-24 02:54:00,
2013-02-23 20:59:00,26.8,19.9,29.83,SSW,203,3.8,5.4,75,0.00,,,0.00,WUHU216HW,2013-02-24 02:59:00,
2013-02-23 21:04:00,26.6,19.7,29.83,SSW,203,4.3,4.7,75,0.00,,,0.00,WUHU216HW,2013-02-24 03:04:00,
2013-02-23 21:09:00,26.5,19.5,29.83,SSW,203,4.5,5.4,75,0.00,,,0.00,WUHU216HW,2013-02-24 03:09:00,
2013-02-23 21:14:00,26.5,19.9,29.84,SSW,203,4.7,5.4,76,0.00,,,0.00,WUHU216HW,2013-02-24 03:14:00,
2013-02-23 21:19:00,26.5,19.9,29.84,South,180,4.3,5.4,76,0.00,,,0.00,WUHU216HW,2013-02-24 03:19:00,
2013-02-23 21:24:00,26.5,19.9,29.84,SSW,203,3.8,5.4,76,0.00,,,0.00,WUHU216HW,2013-02-24 03:24:00,
2013-02-23 21:29:00,26.3,19.7,29.84,SSW,203,4.5,4.9,76,0.00,,,0.00,WUHU216HW,2013-02-24 03:29:00,
2013-02-23 21:34:00,26.3,19.7,29.84,SSW,203,4.0,4.7,76,0.00,,,0.00,WUHU216HW,2013-02-24 03:34:00,
2013-02-23 21:39:00,26.3,19.7,29.83,SSW,203,3.8,5.1,76,0.00,,,0.00,WUHU216HW,2013-02-24 03:39:00,
2013-02-23 21:45:00,26.3,19.7,29.84,SSW,203,4.3,5.1,76,0.00,,,0.00,WUHU216HW,2013-02-24 03:45:00,
2013-02-23 21:50:00,26.3,19.7,29.84,SSW,203,4.7,5.1,76,0.00,,,0.00,WUHU216HW,2013-02-24 03:50:00,
2013-02-23 21:55:00,26.3,19.7,29.84,SSW,203,4.7,5.1,76,0.00,,,0.00,WUHU216HW,2013-02-24 03:55:00,
2013-02-23 21:59:00,26.3,19.7,29.85,SSW,203,5.4,6.0,76,0.00,,,0.00,WUHU216HW,2013-02-24 03:59:00,
2013-02-23 22:05:00,26.5,19.9,29.84,SSW,203,4.7,6.0,76,0.00,,,0.00,WUHU216HW,2013-02-24 04:05:00,
2013-02-23 22:10:00,26.3,19.7,29.84,SSW,203,4.9,5.6,76,0.00,,,0.00,WUHU216HW,2013-02-24 04:10:00,
2013-02-23 22:15:00,26.3,19.7,29.84,SSW,203,4.5,4.9,76,0.00,,,0.00,WUHU216HW,2013-02-24 04:15:00,
2013-02-23 22:20:00,26.1,19.5,29.84,SSW,203,5.4,5.4,76,0.00,,,0.00,WUHU216HW,2013-02-24 04:20:00,
2013-02-23 22:25:00,26.1,19.5,29.84,SSW,203,4.7,5.4,76,0.00,,,0.00,WUHU216HW,2013-02-24 04:25:00,
2013-02-23 22:30:00,26.1,19.5,29.84,SSW,203,4.7,5.4,76,0.00,,,0.00,WUHU216HW,2013-02-24 04:30:00,
2013-02-23 22:35:00,26.1,19.5,29.84,SSW,203,6.3,6.5,76,0.00,,,0.00,WUHU216HW,2013-02-24 04:35:00,
2013-02-23 22:40:00,26.3,19.7,29.84,SSW,203,5.4,6.5,76,0.00,,,0.00,WUHU216HW,2013-02-24 04:40:00,
2013-02-23 22:45:00,26.3,19.7,29.84,SSW,203,5.4,6.0,76,0.00,,,0.00,WUHU216HW,2013-02-24 04:45:00,
2013-02-23 22:50:00,26.3,19.7,29.84,SSW,203,4.5,5.8,76,0.00,,,0.00,WUHU216HW,2013-02-24 04:50:00,
2013-02-23 22:55:00,26.3,19.7,29.84,SSW,203,5.4,6.3,76,0.00,,,0.00,WUHU216HW,2013-02-24 04:55:00,
2013-02-23 23:00:00,26.1,19.5,29.85,SSW,203,5.6,6.3,76,0.00,,,0.00,WUHU216HW,2013-02-24 05:00:00,
2013-02-23 23:05:00,26.1,19.5,29.85,SSW,203,6.3,6.9,76,0.00,,,0.00,WUHU216HW,2013-02-24 05:05:00,
2013-02-23 23:10:00,26.1,19.5,29.85,SSW,203,5.8,6.9,76,0.00,,,0.00,WUHU216HW,2013-02-24 05:10:00,
2013-02-23 23:15:00,26.1,19.5,29.85,SSW,203,4.7,6.3,76,0.00,,,0.00,WUHU216HW,2013-02-24 05:15:00,
2013-02-23 23:20:00,25.9,19.4,29.85,SSW,203,4.0,6.3,76,0.00,,,0.00,WUHU216HW,2013-02-24 05:20:00,
2013-02-23 23:25:00,25.6,19.0,29.84,SSW,203,4.7,4.7,76,0.00,,,0.00,WUHU216HW,2013-02-24 05:25:00,
2013-02-23 23:30:00,25.4,19.2,29.84,SSW,203,4.7,4.7,77,0.00,,,0.00,WUHU216HW,2013-02-24 05:30:00,
2013-02-23 23:35:00,25.2,19.0,29.84,SSW,203,4.0,4.7,77,0.00,,,0.00,WUHU216HW,2013-02-24 05:35:00,
2013-02-23 23:40:00,25.0,18.8,29.84,SSW,203,5.4,5.4,77,0.00,,,0.00,WUHU216HW,2013-02-24 05:40:00,
2013-02-23 23:45:00,24.8,18.6,29.84,SSW,203,4.5,5.4,77,0.00,,,0.00,WUHU216HW,2013-02-24 05:45:00,
2013-02-23 23:50:00,24.7,18.5,29.84,SSW,203,4.0,4.7,77,0.00,,,0.00,WUHU216HW,2013-02-24 05:50:00,
2013-02-23 23:55:00,24.5,18.3,29.84,South,180,4.3,4.3,77,0.00,,,0.00,WUHU216HW,2013-02-24 05:55:00,